Terminal Aerodrome Forecast
Issued by NWS Grand Forks, ND

Home | Current Version | Previous Version | Text Only | Print | Product List | Glossary On
Versions: 1 2 3 4 5 6 7 8 9 10 11 12 13 14 15 16 17 18 19 20 21 22 23 24 25 26 27 28 29 30 31 32 33 34 35 36 37 38 39 40 41 42
000
FTUS43 KFGF 090520
TAFFAR
TAF
KFAR 090520Z 0906/1006 VRB05KT P6SM SCT060
     FM091300 21010KT P6SM SCT200
     FM091500 24014G22KT P6SM FEW040
     FM091800 27016G25KT P6SM BKN050
     FM092300 28013KT P6SM FEW060=

USA.gov is the U.S. government's official web portal to all federal, state and local government web resources and services.